Flight Track Log - Related Links

Times and Time Zones

All times are in EDT time to prevent confusion due to time zone crossing. See the KAP17 flight status page for this flight to view local times or setup timezone preferences in your user account.

Time Position Orientation Groundspeed Altitude Reporting Facility
EDT Latitude Longitude Course Direction KTS MPH feet Rate Location/Type
Sat 06:52:44 PM 41.2964 -73.5700 22° Northeast 170 196 8,700  Level Boston Center
Sat 06:53:44 PM 41.3281 -73.5236 48° Northeast 159 183 8,900 100 Climbing Boston Center
Sat 06:54:44 PM 41.3619 -73.4744 47° Northeast 164 189 8,900  Level Boston Center
Sat 06:55:44 PM 41.3978 -73.4253 46° Northeast 179 206 8,900  Level Boston Center
Sat 06:56:30 PM 41.4231 -73.3925 44° Northeast 184 212 8,900 50 Level Boston Center
Sat 06:57:44 PM 41.4736 -73.3294 43° Northeast 179 206 9,000 45 Climbing Boston Center
Sat 06:58:00 PM 41.1021 -73.6891 22° Northeast  Level Estimated
Sat 06:58:44 PM 41.5072 -73.2828 46° Northeast 174 200 9,000  Level Boston Center
Sat 06:59:44 PM 41.5511 -73.2806 North 152 175 9,000 -50 Level Boston Center
Sat 07:00:44 PM 41.5950 -73.2756 North 147 169 8,900  Descending Boston Center
Sat 07:01:44 PM 41.6408 -73.2511 22° Northeast 159 183 9,000  Climbing Boston Center
Sat 07:02:44 PM 41.6847 -73.2322 18° North 164 189 8,900 -50 Descending Boston Center
Sat 07:03:44 PM 41.7225 -73.2161 18° North 164 189 8,900 47 Level Boston Center
Sat 07:04:53 PM 41.7769 -73.1917 19° North 165 190 9,000  Climbing Boston Center
Sat 07:05:44 PM 41.8125 -73.1756 19° North 164 189 8,900  Descending Boston Center
Sat 07:06:44 PM 41.8625 -73.1536 18° North 164 189 9,000  Climbing Boston Center
Sat 07:07:44 PM 41.9003 -73.1375 18° North 170 196 8,900  Descending Boston Center
Sat 07:08:44 PM 41.9525 -73.1128 19° North 170 196 9,000 47 Climbing Boston Center
Sat 07:09:51 PM 41.9964 -73.0881 23° Northeast 168 193 9,000  Level Boston Center
Sat 07:10:44 PM 42.0381 -73.0692 19° North 191 220 9,000 -53 Level Boston Center
Sat 07:11:44 PM 42.0758 -73.0497 21° North 178 205 8,900  Descending Boston Center
Sat 07:12:44 PM 42.1239 -73.0278 19° North 167 192 9,000 50 Climbing Boston Center
Sat 07:13:44 PM 42.1656 -73.0086 19° North 167 192 9,000  Level Boston Center
Sat 07:14:44 PM 42.2136 -72.9867 19° North 167 192 9,000  Level Boston Center
Sat 07:15:44 PM 42.2553 -72.9675 19° North 167 192 9,000  Level Boston Center
Sat 07:16:44 PM 42.3033 -72.9425 21° North 167 192 9,000  Level Boston Center
Sat 07:17:44 PM 42.3453 -72.9261 16° North 167 192 9,000  Level Boston Center
Sat 07:18:44 PM 42.3911 -72.9011 22° Northeast 167 192 9,000  Level Boston Center
Sat 07:19:44 PM 42.4328 -72.8817 19° North 167 192 9,000  Level Boston Center
Sat 07:20:44 PM 42.4831 -72.8567 20° North 167 192 9,000  Level Boston Center
Sat 07:21:44 PM 42.5228 -72.8372 20° North 167 192 9,000  Level Boston Center
Sat 07:22:44 PM 42.5728 -72.8150 18° North 167 192 9,000  Level Boston Center
Sat 07:23:44 PM 42.6208 -72.7956 17° North 167 192 9,000  Level Boston Center
Sat 07:24:44 PM 42.6667 -72.7733 20° North 167 192 9,000  Level Boston Center
Sat 07:25:44 PM 42.7125 -72.7539 17° North 167 192 9,000 -50 Level Boston Center
Sat 07:26:44 PM 42.7522 -72.7342 20° North 167 192 8,900  Descending Boston Center
Sat 07:27:44 PM 42.7981 -72.7117 20° North 167 192 9,000  Climbing Boston Center
Sat 07:28:44 PM 42.8419 -72.6892 21° North 167 192 8,900  Descending Boston Center
Sat 07:29:44 PM 42.8836 -72.6697 19° North 162 186 9,000  Climbing Boston Center
Sat 07:30:44 PM 42.9297 -72.6472 20° North 162 186 8,900 -300 Descending Boston Center
Sat 07:31:44 PM 42.9797 -72.6244 18° North 167 192 8,400 -650 Descending Boston Center
Sat 07:32:44 PM 43.0275 -72.6019 19° North 172 198 7,600 -850 Descending Boston Center
Sat 07:33:44 PM 43.0778 -72.5794 18° North 172 198 6,700 -800 Descending Boston Center
Sat 07:34:44 PM 43.1256 -72.5567 19° North 172 198 6,000 -600 Descending Boston Center
Sat 07:35:44 PM 43.1736 -72.5311 21° North 172 198 5,500 -500 Descending Boston Center
Sat 07:36:44 PM 43.2214 -72.5083 19° North 172 198 5,000 -250 Descending Boston Center
Sat 07:37:44 PM 43.2631 -72.4856 22° Northeast 166 191 5,000  Level Boston Center
Sat 07:38:44 PM 43.3050 -72.4658 19° North 161 185 5,000  Level Boston Center
Sat 07:39:44 PM 43.3467 -72.4431 22° Northeast 161 185 5,000  Level Boston Center

Login

Don't have an account? Register now (free) for customized features, flight alerts, and more!